createdAt,value
2017-08-18T00:01:26.290Z,20.30
2017-08-18T00:03:53.703Z,20.30
2017-08-18T00:06:21.114Z,20.20
2017-08-18T00:08:48.580Z,20.30
2017-08-18T00:11:15.970Z,20.30
2017-08-18T00:13:43.406Z,20.30
2017-08-18T00:16:10.947Z,20.20
2017-08-18T00:18:38.359Z,20.20
2017-08-18T00:21:06.526Z,20.20
2017-08-18T00:23:34.707Z,20.00
2017-08-18T00:26:02.878Z,20.00
2017-08-18T00:28:31.046Z,20.00
2017-08-18T00:30:59.222Z,20.00
2017-08-18T00:33:27.407Z,20.00
2017-08-18T00:35:54.813Z,20.00
2017-08-18T00:38:22.935Z,19.90
2017-08-18T00:40:50.420Z,19.90
2017-08-18T00:43:17.826Z,19.90
2017-08-18T00:45:46.006Z,19.90
2017-08-18T00:48:14.186Z,19.80
2017-08-18T00:50:42.422Z,19.80
2017-08-18T00:53:09.847Z,19.80
2017-08-18T00:55:37.303Z,19.80
2017-08-18T00:58:04.734Z,19.80
2017-08-18T01:00:32.910Z,19.80
2017-08-18T01:03:00.312Z,19.80
2017-08-18T01:05:27.724Z,19.80
2017-08-18T01:07:55.135Z,19.80
2017-08-18T01:10:22.542Z,19.80
2017-08-18T01:12:49.951Z,19.80
2017-08-18T01:15:17.355Z,19.80
2017-08-18T01:17:44.762Z,19.80
2017-08-18T01:20:12.178Z,19.80
2017-08-18T01:22:39.583Z,19.90
2017-08-18T01:25:07.760Z,19.90
2017-08-18T01:27:35.266Z,19.80
2017-08-18T01:30:02.685Z,19.90
2017-08-18T01:32:30.909Z,19.90
2017-08-18T01:34:58.317Z,19.90
2017-08-18T01:37:25.728Z,19.90
2017-08-18T01:39:53.178Z,19.80
2017-08-18T01:42:20.606Z,19.90
2017-08-18T01:44:48.024Z,19.80
2017-08-18T01:47:16.239Z,19.90
2017-08-18T01:49:44.248Z,19.80
2017-08-18T01:52:11.699Z,19.80
2017-08-18T01:54:39.094Z,19.80
2017-08-18T01:57:06.605Z,19.80
2017-08-18T01:59:34.026Z,19.80
2017-08-18T02:02:01.490Z,19.70
2017-08-18T02:04:28.895Z,19.70
2017-08-18T02:06:56.306Z,19.60
2017-08-18T02:09:23.736Z,19.60
2017-08-18T02:11:51.167Z,19.60
2017-08-18T02:14:19.347Z,19.70
2017-08-18T02:16:47.523Z,19.70
2017-08-18T02:19:15.742Z,19.70
2017-08-18T02:21:43.156Z,19.60
2017-08-18T02:24:11.356Z,19.70
2017-08-18T02:26:38.776Z,19.70
2017-08-18T02:29:06.958Z,19.70
2017-08-18T02:31:35.161Z,19.70
2017-08-18T02:34:02.566Z,19.70
2017-08-18T02:36:29.980Z,19.70
2017-08-18T02:38:57.415Z,19.70
2017-08-18T02:41:24.824Z,19.70
2017-08-18T02:43:52.230Z,19.70
2017-08-18T02:46:20.880Z,19.60
2017-08-18T02:48:49.101Z,19.50
2017-08-18T02:51:16.557Z,19.50
2017-08-18T02:53:43.965Z,19.60
2017-08-18T02:56:12.131Z,19.50
2017-08-18T02:58:40.359Z,19.50
2017-08-18T03:01:07.759Z,19.50
2017-08-18T03:03:35.179Z,19.50
2017-08-18T03:06:02.582Z,19.50
2017-08-18T03:08:30.775Z,19.50
2017-08-18T03:10:58.187Z,19.50
2017-08-18T03:13:25.947Z,19.40
2017-08-18T03:15:53.351Z,19.40
2017-08-18T03:18:20.765Z,19.30
2017-08-18T03:20:48.177Z,19.20
2017-08-18T03:23:15.940Z,19.20
2017-08-18T03:25:43.899Z,19.20
2017-08-18T03:28:11.304Z,19.10
2017-08-18T03:30:38.716Z,19.10
2017-08-18T03:33:06.279Z,18.90
2017-08-18T03:35:33.733Z,18.90
2017-08-18T03:38:01.134Z,18.90
2017-08-18T03:40:28.541Z,18.80
2017-08-18T03:42:56.328Z,18.70
2017-08-18T03:45:23.745Z,18.60
2017-08-18T03:47:51.219Z,18.60
2017-08-18T03:50:18.635Z,18.60
2017-08-18T03:52:46.815Z,18.60
2017-08-18T03:55:15.011Z,18.60
2017-08-18T03:57:42.590Z,18.60
2017-08-18T04:00:10.217Z,18.40
2017-08-18T04:02:37.620Z,18.40
2017-08-18T04:05:05.028Z,18.40
2017-08-18T04:07:32.434Z,18.40
2017-08-18T04:09:59.839Z,18.30
2017-08-18T04:12:27.254Z,18.40
2017-08-18T04:14:54.657Z,18.40
2017-08-18T04:17:22.123Z,18.40
2017-08-18T04:19:49.547Z,18.50
2017-08-18T04:22:16.966Z,18.50
2017-08-18T04:24:44.567Z,18.60
2017-08-18T04:27:12.056Z,18.60
2017-08-18T04:29:39.462Z,18.70
2017-08-18T04:32:07.644Z,18.70
2017-08-18T04:34:35.853Z,18.80
2017-08-18T04:37:03.273Z,18.70
2017-08-18T04:39:31.471Z,18.80
2017-08-18T04:41:59.572Z,18.80
2017-08-18T04:44:26.978Z,18.80
2017-08-18T04:46:54.406Z,18.80
2017-08-18T04:49:21.810Z,18.80
2017-08-18T04:51:49.248Z,18.70
2017-08-18T04:54:17.438Z,18.80
2017-08-18T04:56:44.855Z,18.80
2017-08-18T04:59:13.027Z,18.80
2017-08-18T05:01:41.219Z,18.80
2017-08-18T05:04:09.015Z,18.80
2017-08-18T05:06:36.420Z,18.80
2017-08-18T05:09:04.633Z,18.80
2017-08-18T05:11:32.838Z,18.80
2017-08-18T05:14:00.255Z,18.80
2017-08-18T05:16:28.153Z,18.80
2017-08-18T05:18:55.572Z,18.90
2017-08-18T05:21:22.979Z,18.90
2017-08-18T05:23:50.550Z,19.00
2017-08-18T05:26:17.975Z,19.00
2017-08-18T05:28:45.390Z,19.00
2017-08-18T05:31:13.394Z,19.10
2017-08-18T05:33:40.843Z,19.10
2017-08-18T05:36:08.276Z,19.20
2017-08-18T05:38:35.686Z,19.30
2017-08-18T05:41:03.098Z,19.40
2017-08-18T05:43:30.575Z,19.30
2017-08-18T05:45:58.002Z,19.50
2017-08-18T05:48:25.424Z,19.50
2017-08-18T05:50:54.162Z,19.70
2017-08-18T05:53:21.567Z,19.70
2017-08-18T05:55:50.171Z,19.80
2017-08-18T05:58:17.653Z,19.80
2017-08-18T06:00:45.060Z,19.80
2017-08-18T06:03:13.235Z,19.90
2017-08-18T06:05:41.412Z,19.90
2017-08-18T06:08:09.589Z,19.90
2017-08-18T06:10:37.830Z,20.00
2017-08-18T06:13:05.243Z,19.90
2017-08-18T06:15:32.664Z,19.90
2017-08-18T06:18:00.886Z,19.90
2017-08-18T06:20:28.344Z,19.90
2017-08-18T06:22:55.760Z,20.00
2017-08-18T06:25:23.942Z,20.00
2017-08-18T06:27:51.393Z,19.90
2017-08-18T06:30:19.599Z,19.90
2017-08-18T06:32:47.775Z,19.90
2017-08-18T06:35:15.229Z,19.90
2017-08-18T06:37:42.622Z,19.80
2017-08-18T06:40:10.030Z,19.80
2017-08-18T06:42:37.503Z,19.80
2017-08-18T06:45:04.913Z,19.80
2017-08-18T06:47:33.088Z,19.70
2017-08-18T06:50:01.407Z,19.70
2017-08-18T06:52:28.867Z,19.70
2017-08-18T06:54:56.283Z,19.70
2017-08-18T06:57:23.692Z,19.70
2017-08-18T06:59:51.122Z,19.70
2017-08-18T07:02:18.584Z,19.70
2017-08-18T07:04:45.997Z,19.70
2017-08-18T07:07:14.173Z,19.70
2017-08-18T07:09:41.582Z,19.70
2017-08-18T07:12:09.335Z,19.60
2017-08-18T07:14:36.748Z,19.60
2017-08-18T07:17:04.786Z,19.60
2017-08-18T07:19:32.614Z,19.70
2017-08-18T07:22:00.064Z,19.80
2017-08-18T07:24:27.526Z,19.90
2017-08-18T07:26:55.579Z,19.90
2017-08-18T07:29:23.038Z,19.90
2017-08-18T07:31:50.716Z,19.90
2017-08-18T07:34:18.163Z,19.90
2017-08-18T07:36:45.634Z,20.00
2017-08-18T07:39:13.048Z,19.80
2017-08-18T07:41:41.133Z,19.90
2017-08-18T07:44:09.290Z,19.90
2017-08-18T07:46:37.279Z,19.90
2017-08-18T07:49:05.998Z,19.90
2017-08-18T07:51:33.419Z,19.80
2017-08-18T07:54:00.883Z,19.80
2017-08-18T07:56:28.365Z,19.80
2017-08-18T07:58:55.803Z,19.80
2017-08-18T08:01:23.206Z,19.80
2017-08-18T08:03:51.959Z,19.70
2017-08-18T08:06:20.206Z,19.80
2017-08-18T08:08:48.183Z,19.80
2017-08-18T08:11:15.701Z,19.70
2017-08-18T08:13:43.870Z,19.70
2017-08-18T08:16:12.084Z,19.80
2017-08-18T08:18:39.494Z,19.80
2017-08-18T08:21:07.672Z,19.80
2017-08-18T08:23:35.855Z,19.80
2017-08-18T08:26:04.099Z,19.80
2017-08-18T08:28:31.506Z,19.90
2017-08-18T08:30:58.920Z,20.00
2017-08-18T08:33:27.099Z,20.10
2017-08-18T08:35:55.310Z,20.20
2017-08-18T08:38:22.722Z,20.20
2017-08-18T08:40:51.666Z,20.20
2017-08-18T08:43:19.120Z,20.20
2017-08-18T08:45:46.524Z,20.20
2017-08-18T08:48:14.697Z,20.30
2017-08-18T08:50:43.066Z,20.20
2017-08-18T08:53:10.581Z,20.20
2017-08-18T08:55:38.707Z,20.10
2017-08-18T08:58:06.521Z,19.90
2017-08-18T09:00:33.922Z,20.00
2017-08-18T09:03:02.098Z,20.20
2017-08-18T09:05:30.275Z,20.40
2017-08-18T09:07:58.456Z,20.50
2017-08-18T09:10:26.640Z,20.50
2017-08-18T09:12:54.120Z,20.50
2017-08-18T09:15:21.577Z,20.60
2017-08-18T09:17:49.127Z,20.70
2017-08-18T09:20:16.544Z,20.60
2017-08-18T09:22:43.967Z,20.60
2017-08-18T09:25:11.402Z,20.30
2017-08-18T09:27:38.812Z,19.90
2017-08-18T09:30:07.002Z,19.60
2017-08-18T09:32:34.443Z,19.60
2017-08-18T09:35:02.618Z,19.60
2017-08-18T09:37:30.802Z,19.50
2017-08-18T09:39:58.211Z,19.50
2017-08-18T09:42:25.630Z,19.50
2017-08-18T09:44:53.633Z,19.60
2017-08-18T09:47:21.047Z,19.50
2017-08-18T09:50:00.416Z,19.50
2017-08-18T09:55:49.062Z,19.40
2017-08-18T09:58:28.432Z,19.30
2017-08-18T10:00:55.861Z,19.30
2017-08-18T10:03:23.313Z,19.20
2017-08-18T10:05:50.778Z,19.10
2017-08-18T10:08:18.193Z,19.00
2017-08-18T10:10:45.676Z,19.00
2017-08-18T10:13:13.101Z,18.80
2017-08-18T10:15:41.296Z,19.10
2017-08-18T10:18:08.715Z,19.10
2017-08-18T10:20:36.277Z,19.10
2017-08-18T10:23:03.733Z,19.20
2017-08-18T10:25:31.167Z,19.20
2017-08-18T10:27:58.733Z,19.00
2017-08-18T10:30:26.214Z,19.40
2017-08-18T10:32:53.635Z,19.70
2017-08-18T10:35:21.086Z,19.90
2017-08-18T10:37:48.507Z,20.10
2017-08-18T10:40:16.053Z,20.20
2017-08-18T10:42:43.501Z,20.30
2017-08-18T10:45:11.683Z,20.30
2017-08-18T10:47:39.158Z,20.30
2017-08-18T10:50:06.589Z,20.50
2017-08-18T10:52:34.766Z,20.80
2017-08-18T10:55:02.980Z,21.00
2017-08-18T10:57:30.446Z,21.00
2017-08-18T10:59:57.856Z,21.00
2017-08-18T11:02:25.285Z,21.00
2017-08-18T11:04:52.728Z,21.00
2017-08-18T11:07:20.144Z,21.00
2017-08-18T11:09:47.619Z,21.00
2017-08-18T11:12:15.022Z,20.80
2017-08-18T11:14:42.464Z,20.70
2017-08-18T11:17:09.877Z,20.50
2017-08-18T11:19:37.347Z,20.30
2017-08-18T11:22:04.781Z,20.40
2017-08-18T11:24:32.217Z,20.40
2017-08-18T11:26:59.660Z,20.40
2017-08-18T11:29:27.084Z,20.50
2017-08-18T11:31:54.532Z,20.50
2017-08-18T11:34:22.013Z,20.50
2017-08-18T11:36:50.219Z,20.80
2017-08-18T11:39:17.633Z,20.80
2017-08-18T11:41:45.829Z,20.60
2017-08-18T11:44:13.309Z,20.60
2017-08-18T11:46:40.808Z,20.20
2017-08-18T11:49:08.310Z,20.00
2017-08-18T11:51:35.949Z,20.10
2017-08-18T11:54:03.475Z,20.20
2017-08-18T11:56:30.902Z,20.30
2017-08-18T11:58:58.376Z,20.40
2017-08-18T12:01:25.839Z,20.70
2017-08-18T12:03:54.032Z,20.70
2017-08-18T12:06:21.509Z,20.60
2017-08-18T12:08:48.955Z,20.80
2017-08-18T12:11:16.360Z,21.10
2017-08-18T12:13:43.809Z,21.40
2017-08-18T12:16:11.331Z,21.40
2017-08-18T12:18:38.768Z,21.40
2017-08-18T12:21:06.198Z,21.10
2017-08-18T12:23:33.755Z,21.10
2017-08-18T12:26:01.212Z,21.00
2017-08-18T12:28:28.634Z,21.00
2017-08-18T12:30:56.072Z,20.90
2017-08-18T12:33:23.509Z,21.10
2017-08-18T12:35:50.930Z,21.00
2017-08-18T12:41:04.624Z,22.60
2017-08-18T12:43:32.060Z,22.60
2017-08-18T12:45:59.471Z,22.60
2017-08-18T12:48:26.948Z,22.20
2017-08-18T12:50:54.355Z,22.60
2017-08-18T12:53:23.279Z,22.30
2017-08-18T12:55:50.708Z,22.30
2017-08-18T12:58:18.119Z,22.10
2017-08-18T13:00:45.552Z,22.00
2017-08-18T13:03:12.962Z,22.00
2017-08-18T13:05:40.377Z,21.60
2017-08-18T13:08:08.212Z,21.40
2017-08-18T13:10:36.417Z,21.20
2017-08-18T13:13:04.721Z,21.10
2017-08-18T13:15:32.130Z,21.20
2017-08-18T13:17:59.546Z,21.10
2017-08-18T13:20:27.558Z,20.80
2017-08-18T13:23:09.217Z,20.70
2017-08-18T13:25:36.727Z,20.50
2017-08-18T13:28:04.175Z,20.40
2017-08-18T13:30:31.570Z,20.30
2017-08-18T13:32:59.792Z,20.70
2017-08-18T13:35:28.072Z,20.60
2017-08-18T13:38:00.479Z,20.70
2017-08-18T13:40:27.970Z,20.60
2017-08-18T13:42:56.152Z,20.70
2017-08-18T13:45:23.563Z,20.70
2017-08-18T13:47:51.095Z,20.70
2017-08-18T13:50:18.502Z,20.80
2017-08-18T13:52:46.716Z,20.90
2017-08-18T13:55:14.179Z,20.90
2017-08-18T13:57:41.595Z,21.10
2017-08-18T14:00:09.455Z,21.30
2017-08-18T14:02:36.875Z,21.20
2017-08-18T14:05:04.315Z,21.20
2017-08-18T14:07:31.726Z,21.30
2017-08-18T14:09:59.226Z,21.50
2017-08-18T14:12:27.222Z,21.70
2017-08-18T14:14:54.822Z,21.90
2017-08-18T14:17:22.715Z,22.30
2017-08-18T14:19:50.160Z,22.60
2017-08-18T14:22:17.555Z,22.60
2017-08-18T14:24:44.978Z,22.80
2017-08-18T14:27:18.111Z,22.70
2017-08-18T14:29:45.611Z,22.70
2017-08-18T14:32:13.198Z,22.80
2017-08-18T14:34:40.640Z,22.80
2017-08-18T14:37:08.043Z,23.00
2017-08-18T14:39:36.259Z,23.70
2017-08-18T14:42:03.719Z,23.60
2017-08-18T14:44:31.123Z,24.00
2017-08-18T14:46:58.570Z,23.90
2017-08-18T14:49:25.979Z,23.70
2017-08-18T14:51:53.713Z,23.50
2017-08-18T14:54:21.123Z,22.70
2017-08-18T14:56:48.560Z,22.30
2017-08-18T14:59:15.977Z,22.10
2017-08-18T15:01:44.158Z,21.80
2017-08-18T15:04:11.642Z,21.80
2017-08-18T15:06:39.086Z,21.80
2017-08-18T15:09:06.611Z,21.80
2017-08-18T15:11:34.815Z,21.80
2017-08-18T15:14:02.271Z,21.80
2017-08-18T15:16:30.239Z,21.80
2017-08-18T15:18:57.643Z,21.70
2017-08-18T15:21:25.063Z,21.60
2017-08-18T15:23:52.479Z,21.60
2017-08-18T15:26:19.943Z,21.70
2017-08-18T15:28:48.139Z,21.50
2017-08-18T15:31:15.592Z,21.50
2017-08-18T15:33:42.998Z,21.30
2017-08-18T15:36:11.227Z,21.50
2017-08-18T15:38:38.666Z,21.50
2017-08-18T15:41:06.618Z,21.50
2017-08-18T15:43:34.783Z,21.60
2017-08-18T15:46:02.210Z,21.60
2017-08-18T15:48:29.628Z,21.50
2017-08-18T15:50:57.334Z,21.50
2017-08-18T15:53:24.759Z,21.40
2017-08-18T15:55:52.219Z,21.40
2017-08-18T15:58:19.638Z,21.30
2017-08-18T16:00:47.052Z,21.30
2017-08-18T16:03:14.458Z,21.30
2017-08-18T16:05:41.862Z,21.20
2017-08-18T16:08:09.272Z,21.10
2017-08-18T16:10:36.710Z,21.10
2017-08-18T16:13:04.100Z,21.10
2017-08-18T16:15:32.171Z,21.00
2017-08-18T16:17:59.563Z,20.90
2017-08-18T16:20:28.151Z,20.90
2017-08-18T16:22:56.382Z,20.80
2017-08-18T16:25:23.843Z,20.80
2017-08-18T16:27:51.718Z,20.60
2017-08-18T16:30:19.207Z,20.40
2017-08-18T16:32:47.423Z,20.40
2017-08-18T16:35:14.824Z,20.40
2017-08-18T16:37:42.347Z,20.40
2017-08-18T16:40:09.748Z,20.30
2017-08-18T16:42:37.932Z,20.20
2017-08-18T16:45:06.126Z,20.20
2017-08-18T16:47:34.111Z,20.10
2017-08-18T16:50:01.562Z,20.00
2017-08-18T16:52:29.251Z,19.90
2017-08-18T16:54:56.775Z,19.90
2017-08-18T16:57:24.182Z,19.90
2017-08-18T16:59:52.395Z,19.90
2017-08-18T17:02:20.427Z,19.80
2017-08-18T17:04:47.922Z,19.80
2017-08-18T17:07:15.347Z,19.80
2017-08-18T17:09:43.533Z,19.70
2017-08-18T17:12:10.959Z,19.70
2017-08-18T17:14:38.371Z,19.70
2017-08-18T17:17:05.788Z,19.70
2017-08-18T17:19:33.963Z,19.70
2017-08-18T17:22:01.429Z,19.70
2017-08-18T17:24:28.841Z,19.80
2017-08-18T17:26:56.264Z,19.70
2017-08-18T17:29:23.979Z,19.70
2017-08-18T17:31:52.186Z,19.70
2017-08-18T17:34:20.008Z,19.70
2017-08-18T17:36:47.411Z,19.80
2017-08-18T17:39:14.828Z,19.70
2017-08-18T17:41:43.015Z,19.70
2017-08-18T17:44:10.490Z,19.70
2017-08-18T17:46:37.952Z,19.80
2017-08-18T17:49:05.358Z,19.80
2017-08-18T17:51:32.780Z,19.70
2017-08-18T17:54:00.186Z,19.80
2017-08-18T17:56:27.609Z,19.90
2017-08-18T17:58:55.866Z,19.70
2017-08-18T18:01:23.714Z,19.80
2017-08-18T18:03:51.602Z,19.80
2017-08-18T18:06:19.003Z,19.80
2017-08-18T18:08:46.488Z,19.70
2017-08-18T18:11:13.894Z,19.60
2017-08-18T18:13:41.307Z,19.60
2017-08-18T18:16:08.731Z,19.60
2017-08-18T18:18:36.927Z,19.60
2017-08-18T18:21:04.343Z,19.60
2017-08-18T18:23:32.512Z,19.60
2017-08-18T18:26:00.687Z,19.60
2017-08-18T18:28:28.872Z,19.50
2017-08-18T18:30:57.054Z,19.60
2017-08-18T18:33:24.535Z,19.60
2017-08-18T18:35:51.951Z,19.50
2017-08-18T18:38:19.368Z,19.40
2017-08-18T18:40:47.427Z,19.40
2017-08-18T18:43:15.011Z,19.10
2017-08-18T18:45:42.466Z,19.10
2017-08-18T18:48:09.929Z,19.20
2017-08-18T18:50:37.334Z,19.10
2017-08-18T18:53:04.746Z,18.90
2017-08-18T18:55:32.156Z,18.90
2017-08-18T18:57:59.571Z,18.90
2017-08-18T19:00:26.995Z,18.90
2017-08-18T19:02:54.402Z,18.80
2017-08-18T19:05:21.998Z,18.80
2017-08-18T19:07:49.406Z,18.80
2017-08-18T19:10:17.595Z,18.80
2017-08-18T19:12:45.004Z,18.80
2017-08-18T19:15:12.427Z,18.80
2017-08-18T19:17:40.808Z,18.70
2017-08-18T19:20:08.220Z,18.60
2017-08-18T19:22:35.628Z,18.60
2017-08-18T19:25:03.059Z,18.60
2017-08-18T19:27:30.475Z,18.70
2017-08-18T19:29:58.694Z,18.50
2017-08-18T19:32:26.668Z,18.50
2017-08-18T19:34:54.080Z,18.40
2017-08-18T19:37:22.359Z,18.60
2017-08-18T19:39:50.539Z,18.50
2017-08-18T19:42:18.707Z,18.60
2017-08-18T19:44:46.891Z,18.50
2017-08-18T19:47:14.294Z,18.50
2017-08-18T19:49:41.705Z,18.50
2017-08-18T19:52:09.135Z,18.50
2017-08-18T19:54:36.563Z,18.50
2017-08-18T19:57:03.975Z,18.40
2017-08-18T19:59:31.386Z,18.30
2017-08-18T20:01:58.802Z,18.40
2017-08-18T20:04:26.775Z,18.40
2017-08-18T20:06:54.638Z,18.30
2017-08-18T20:09:22.051Z,18.40
2017-08-18T20:11:49.471Z,18.40
2017-08-18T20:14:16.906Z,18.30
2017-08-18T20:16:44.487Z,18.20
2017-08-18T20:19:11.950Z,18.30
2017-08-18T20:21:39.362Z,18.30
2017-08-18T20:24:06.763Z,18.20
2017-08-18T20:26:35.720Z,18.10
2017-08-18T20:29:03.119Z,18.10
2017-08-18T20:31:30.537Z,18.10
2017-08-18T20:33:57.942Z,18.10
2017-08-18T20:36:25.451Z,18.10
2017-08-18T20:38:52.985Z,18.00
2017-08-18T20:41:20.395Z,18.00
2017-08-18T20:43:47.806Z,18.00
2017-08-18T20:46:15.275Z,17.90
2017-08-18T20:48:43.168Z,17.90
2017-08-18T20:51:10.630Z,17.80
2017-08-18T20:53:38.055Z,17.70
2017-08-18T20:56:05.467Z,17.60
2017-08-18T20:58:33.694Z,17.60
2017-08-18T21:01:01.142Z,17.60
2017-08-18T21:03:28.555Z,17.40
2017-08-18T21:05:56.050Z,17.40
2017-08-18T21:08:24.299Z,17.30
2017-08-18T21:10:52.518Z,17.30
2017-08-18T21:13:19.964Z,17.30
2017-08-18T21:15:47.390Z,17.40
2017-08-18T21:18:15.583Z,17.30
2017-08-18T21:20:43.214Z,17.30
2017-08-18T21:23:10.715Z,17.30
2017-08-18T21:25:38.183Z,17.30
2017-08-18T21:28:05.602Z,17.20
2017-08-18T21:30:33.014Z,17.20
2017-08-18T21:33:00.423Z,17.20
2017-08-18T21:35:27.934Z,17.20
2017-08-18T21:37:55.355Z,17.20
2017-08-18T21:40:23.213Z,17.10
2017-08-18T21:42:50.625Z,17.10
2017-08-18T21:45:18.034Z,17.10
2017-08-18T21:47:45.474Z,17.00
2017-08-18T21:50:13.242Z,17.00
2017-08-18T21:52:40.704Z,16.90
2017-08-18T21:55:08.115Z,16.80
2017-08-18T21:57:36.295Z,16.70
2017-08-18T22:00:04.467Z,16.70
2017-08-18T22:02:32.675Z,16.70
2017-08-18T22:05:00.083Z,16.70
2017-08-18T22:07:27.903Z,16.80
2017-08-18T22:09:55.311Z,16.80
2017-08-18T22:12:23.490Z,16.70
2017-08-18T22:14:51.699Z,16.80
2017-08-18T22:17:19.116Z,16.70
2017-08-18T22:19:46.525Z,16.80
2017-08-18T22:22:13.939Z,16.80
2017-08-18T22:24:42.111Z,16.80
2017-08-18T22:27:10.041Z,16.80
2017-08-18T22:29:37.754Z,16.80
2017-08-18T22:32:05.179Z,16.90
2017-08-18T22:34:33.841Z,16.90
2017-08-18T22:37:01.242Z,16.90
2017-08-18T22:39:29.443Z,17.00
2017-08-18T22:41:56.861Z,17.00
2017-08-18T22:44:24.283Z,17.10
2017-08-18T22:46:51.683Z,17.10
2017-08-18T22:49:19.130Z,17.10
2017-08-18T22:51:47.298Z,17.10
2017-08-18T22:54:16.551Z,17.10
2017-08-18T22:56:44.272Z,17.10
2017-08-18T22:59:12.840Z,17.00
2017-08-18T23:01:41.263Z,17.00
2017-08-18T23:04:08.723Z,17.00
2017-08-18T23:06:36.759Z,17.00
2017-08-18T23:09:04.979Z,17.10
2017-08-18T23:11:32.400Z,17.10
2017-08-18T23:13:59.817Z,17.00
2017-08-18T23:16:27.219Z,16.70
2017-08-18T23:18:55.292Z,16.70
2017-08-18T23:21:22.754Z,16.70
2017-08-18T23:23:50.170Z,16.70
2017-08-18T23:26:18.361Z,16.80
2017-08-18T23:28:45.775Z,16.80
2017-08-18T23:31:13.186Z,16.80
2017-08-18T23:33:40.619Z,16.80
2017-08-18T23:36:08.831Z,16.80
2017-08-18T23:38:36.242Z,16.80
2017-08-18T23:41:03.828Z,17.00
2017-08-18T23:43:31.524Z,17.00
2017-08-18T23:45:58.970Z,16.90
2017-08-18T23:48:26.375Z,16.90
2017-08-18T23:50:54.575Z,16.60
2017-08-18T23:53:21.979Z,16.60
2017-08-18T23:55:50.221Z,16.70
2017-08-18T23:58:17.629Z,16.70
